createdAt,value
2023-04-17T00:01:32.537Z,79.86
2023-04-17T00:05:41.103Z,79.76
2023-04-17T00:09:51.386Z,79.60
2023-04-17T00:14:00.737Z,79.97
2023-04-17T00:18:09.212Z,79.75
2023-04-17T00:22:17.275Z,79.73
2023-04-17T00:26:25.307Z,80.04
2023-04-17T00:30:33.532Z,80.33
2023-04-17T00:34:43.352Z,79.63
2023-04-17T00:38:51.406Z,79.63
2023-04-17T00:43:02.890Z,79.82
2023-04-17T00:47:11.324Z,79.61
2023-04-17T00:51:19.289Z,79.51
2023-04-17T00:55:27.332Z,79.94
2023-04-17T00:59:35.694Z,79.74
2023-04-17T01:03:45.879Z,79.80
2023-04-17T01:07:53.804Z,79.75
2023-04-17T01:12:21.816Z,79.59
2023-04-17T01:16:31.326Z,79.64
2023-04-17T01:20:39.164Z,79.63
2023-04-17T01:24:47.312Z,79.82
2023-04-17T01:28:56.822Z,79.98
2023-04-17T01:33:07.617Z,79.92
2023-04-17T01:37:16.815Z,80.05
2023-04-17T01:41:24.517Z,80.10
2023-04-17T01:45:32.385Z,80.04
2023-04-17T01:49:40.253Z,80.21
2023-04-17T01:53:48.669Z,80.40
2023-04-17T01:57:56.815Z,80.44
2023-04-17T02:02:04.933Z,80.43
2023-04-17T02:06:13.332Z,80.32
2023-04-17T02:10:21.391Z,80.52
2023-04-17T02:14:31.292Z,80.66
2023-04-17T02:18:40.898Z,80.81
2023-04-17T02:22:48.401Z,80.87
2023-04-17T02:26:58.976Z,80.72
2023-04-17T02:31:10.587Z,80.96
2023-04-17T02:35:18.383Z,80.96
2023-04-17T02:39:27.480Z,80.75
2023-04-17T02:43:35.755Z,80.92
2023-04-17T02:47:43.565Z,80.96
2023-04-17T02:51:52.966Z,81.32
2023-04-17T02:56:01.121Z,81.27
2023-04-17T03:00:13.858Z,81.14
2023-04-17T03:04:22.505Z,80.94
2023-04-17T03:08:35.656Z,81.18
2023-04-17T03:12:43.798Z,81.24
2023-04-17T03:16:51.722Z,81.42
2023-04-17T03:20:59.934Z,81.52
2023-04-17T03:25:08.777Z,81.77
2023-04-17T03:29:17.635Z,81.54
2023-04-17T03:33:25.933Z,81.68
2023-04-17T03:37:34.055Z,81.78
2023-04-17T03:41:42.341Z,81.85
2023-04-17T03:45:51.147Z,81.74
2023-04-17T03:49:59.270Z,81.96
2023-04-17T03:54:08.078Z,81.94
2023-04-17T03:58:16.250Z,81.92
2023-04-17T04:02:26.680Z,81.79
2023-04-17T04:06:34.938Z,82.12
2023-04-17T04:10:45.272Z,82.09
2023-04-17T04:14:52.909Z,82.23
2023-04-17T04:19:01.064Z,82.54
2023-04-17T04:23:08.781Z,82.60
2023-04-17T04:27:18.190Z,82.69
2023-04-17T04:31:26.191Z,82.88
2023-04-17T04:35:35.559Z,82.76
2023-04-17T04:39:43.435Z,82.97
2023-04-17T04:43:51.616Z,83.22
2023-04-17T04:48:00.411Z,83.27
2023-04-17T04:52:08.519Z,83.36
2023-04-17T04:56:16.676Z,83.52
2023-04-17T05:00:25.426Z,83.42
2023-04-17T05:04:33.563Z,83.50
2023-04-17T05:08:41.683Z,83.35
2023-04-17T05:12:49.752Z,83.36
2023-04-17T05:16:57.765Z,83.72
2023-04-17T05:21:05.814Z,83.62
2023-04-17T05:25:14.236Z,83.57
2023-04-17T05:29:22.059Z,83.20
2023-04-17T05:33:37.686Z,83.09
2023-04-17T05:37:48.447Z,82.48
2023-04-17T05:41:56.265Z,82.59
2023-04-17T05:46:06.200Z,82.24
2023-04-17T05:50:14.562Z,81.94
2023-04-17T05:54:24.797Z,81.71
2023-04-17T05:58:40.376Z,81.91
2023-04-17T06:02:48.427Z,81.67
2023-04-17T06:06:58.743Z,81.02
2023-04-17T06:11:07.126Z,81.10
2023-04-17T06:15:18.743Z,80.93
2023-04-17T06:19:29.254Z,81.13
2023-04-17T06:23:37.795Z,80.70
2023-04-17T06:27:47.170Z,80.63
2023-04-17T06:31:55.106Z,80.50
2023-04-17T06:36:04.789Z,80.29
2023-04-17T06:40:15.771Z,79.91
2023-04-17T06:44:29.126Z,79.99
2023-04-17T06:48:39.499Z,80.06
2023-04-17T06:52:53.488Z,80.21
2023-04-17T06:57:09.676Z,79.85
2023-04-17T07:01:17.520Z,79.52
2023-04-17T07:05:26.861Z,79.17
2023-04-17T07:09:41.208Z,79.32
2023-04-17T07:13:49.356Z,79.40
2023-04-17T07:17:57.728Z,79.20
2023-04-17T07:22:12.697Z,79.00
2023-04-17T07:26:19.974Z,78.71
2023-04-17T07:30:28.905Z,78.60
2023-04-17T07:34:41.386Z,78.47
2023-04-17T07:38:52.662Z,78.78
2023-04-17T07:43:11.011Z,78.61
2023-04-17T07:47:18.632Z,78.26
2023-04-17T07:51:34.921Z,78.34
2023-04-17T07:55:44.416Z,78.04
2023-04-17T07:59:57.495Z,77.87
2023-04-17T08:04:05.961Z,77.63
2023-04-17T08:08:22.328Z,77.28
2023-04-17T08:12:30.983Z,76.68
2023-04-17T08:16:40.817Z,76.74
2023-04-17T08:20:51.752Z,77.01
2023-04-17T08:24:59.903Z,76.70
2023-04-17T08:29:08.711Z,75.95
2023-04-17T08:33:19.254Z,75.96
2023-04-17T08:37:32.517Z,75.32
2023-04-17T08:41:51.732Z,74.77
2023-04-17T08:46:01.096Z,75.06
2023-04-17T08:50:17.131Z,74.06
2023-04-17T08:54:27.814Z,73.54
2023-04-17T08:58:37.355Z,73.84
2023-04-17T09:03:08.086Z,73.81
2023-04-17T09:07:16.990Z,73.29
2023-04-17T09:11:24.764Z,72.53
2023-04-17T09:15:33.279Z,71.82
2023-04-17T09:19:43.023Z,71.59
2023-04-17T09:23:55.950Z,70.44
2023-04-17T09:28:14.817Z,71.44
2023-04-17T09:32:26.020Z,72.37
2023-04-17T09:36:37.089Z,73.22
2023-04-17T09:40:45.319Z,72.89
2023-04-17T09:44:59.537Z,72.12
2023-04-17T09:49:18.946Z,71.30
2023-04-17T09:53:26.622Z,71.91
2023-04-17T09:57:35.150Z,68.15
2023-04-17T10:01:45.246Z,64.19
2023-04-17T10:06:00.271Z,64.38
2023-04-17T10:10:12.165Z,64.17
2023-04-17T10:14:29.390Z,62.87
2023-04-17T10:18:37.336Z,61.70
2023-04-17T10:22:45.614Z,62.47
2023-04-17T10:26:53.170Z,62.76
2023-04-17T10:31:06.587Z,61.72
2023-04-17T10:35:38.842Z,62.07
2023-04-17T10:39:55.565Z,62.35
2023-04-17T10:44:09.377Z,61.35
2023-04-17T10:48:25.001Z,61.39
2023-04-17T10:52:46.119Z,60.22
2023-04-17T10:56:58.828Z,58.70
2023-04-17T11:01:12.805Z,60.05
2023-04-17T11:05:21.079Z,60.42
2023-04-17T11:09:30.902Z,60.57
2023-04-17T11:13:42.723Z,60.14
2023-04-17T11:17:51.034Z,59.70
2023-04-17T11:22:01.764Z,59.98
2023-04-17T11:26:10.256Z,60.42
2023-04-17T11:30:27.468Z,59.88
2023-04-17T11:34:36.105Z,59.18
2023-04-17T11:38:50.910Z,59.07
2023-04-17T11:42:58.630Z,59.49
2023-04-17T11:47:06.833Z,58.21
2023-04-17T11:51:14.627Z,59.04
2023-04-17T11:55:22.871Z,58.24
2023-04-17T11:59:34.911Z,57.25
2023-04-17T12:03:45.245Z,57.11
2023-04-17T12:08:04.685Z,56.26
2023-04-17T12:12:12.307Z,56.29
2023-04-17T12:16:22.415Z,56.76
2023-04-17T12:20:30.440Z,56.80
2023-04-17T12:24:38.453Z,58.73
2023-04-17T12:28:46.887Z,57.89
2023-04-17T12:32:54.899Z,57.66
2023-04-17T12:37:02.160Z,58.66
2023-04-17T12:41:09.848Z,58.74
2023-04-17T12:45:18.286Z,57.17
2023-04-17T12:49:25.654Z,56.57
2023-04-17T12:53:33.103Z,56.54
2023-04-17T12:57:41.192Z,56.47
2023-04-17T13:01:48.985Z,56.02
2023-04-17T13:05:57.219Z,54.95
2023-04-17T13:10:06.564Z,55.69
2023-04-17T13:14:15.425Z,54.10
2023-04-17T13:18:23.029Z,54.37
2023-04-17T13:22:30.686Z,55.67
2023-04-17T13:26:39.937Z,55.33
2023-04-17T13:30:47.637Z,55.23
2023-04-17T13:34:58.627Z,54.34
2023-04-17T13:39:11.572Z,54.60
2023-04-17T13:43:19.878Z,52.31
2023-04-17T13:47:27.622Z,52.91
2023-04-17T13:51:36.138Z,53.41
2023-04-17T13:55:43.881Z,54.45
2023-04-17T13:59:52.671Z,55.19
2023-04-17T14:04:00.914Z,55.15
2023-04-17T14:08:09.418Z,54.35
2023-04-17T14:12:20.905Z,56.40
2023-04-17T14:16:29.053Z,56.07
2023-04-17T14:20:36.684Z,56.54
2023-04-17T14:24:45.767Z,56.99
2023-04-17T14:28:53.627Z,56.86
2023-04-17T14:33:01.275Z,55.69
2023-04-17T14:37:09.102Z,56.33
2023-04-17T14:41:16.704Z,56.85
2023-04-17T14:45:24.566Z,56.85
2023-04-17T14:49:34.913Z,56.25
2023-04-17T14:53:42.896Z,56.53
2023-04-17T14:57:50.310Z,56.98
2023-04-17T15:01:58.507Z,57.37
2023-04-17T15:06:09.785Z,56.60
2023-04-17T15:10:18.748Z,56.56
2023-04-17T15:14:29.450Z,57.76
2023-04-17T15:18:37.152Z,58.43
2023-04-17T15:22:52.662Z,57.84
2023-04-17T15:27:00.959Z,57.59
2023-04-17T15:31:08.950Z,57.77
2023-04-17T15:35:16.524Z,58.08
2023-04-17T15:39:24.516Z,58.65
2023-04-17T15:43:32.104Z,59.15
2023-04-17T15:47:40.357Z,60.06
2023-04-17T15:51:49.010Z,61.31
2023-04-17T15:55:57.297Z,61.58
2023-04-17T16:00:06.488Z,61.64
2023-04-17T16:04:14.762Z,61.75
2023-04-17T16:08:22.396Z,62.17
2023-04-17T16:12:31.352Z,62.33
2023-04-17T16:16:39.834Z,62.80
2023-04-17T16:20:47.463Z,62.62
2023-04-17T16:24:55.617Z,63.42
2023-04-17T16:29:03.403Z,63.96
2023-04-17T16:33:11.265Z,64.03
2023-04-17T16:37:18.870Z,63.23
2023-04-17T16:41:26.528Z,63.24
2023-04-17T16:45:33.730Z,63.07
2023-04-17T16:49:42.973Z,63.36
2023-04-17T16:53:52.242Z,63.72
2023-04-17T16:58:00.857Z,63.68
2023-04-17T17:02:08.712Z,64.04
2023-04-17T17:06:17.153Z,64.61
2023-04-17T17:10:25.122Z,65.05
2023-04-17T17:14:32.785Z,65.26
2023-04-17T17:18:41.297Z,65.34
2023-04-17T17:22:52.232Z,65.26
2023-04-17T17:27:00.073Z,64.90
2023-04-17T17:31:09.398Z,64.63
2023-04-17T17:35:18.258Z,64.55
2023-04-17T17:39:26.240Z,64.82
2023-04-17T17:43:33.866Z,64.62
2023-04-17T17:47:41.965Z,64.78
2023-04-17T17:51:49.836Z,65.02
2023-04-17T17:55:58.016Z,64.87
2023-04-17T18:00:06.130Z,65.19
2023-04-17T18:04:15.843Z,65.35
2023-04-17T18:08:24.405Z,65.75
2023-04-17T18:12:32.440Z,65.62
2023-04-17T18:16:42.942Z,65.92
2023-04-17T18:20:51.473Z,66.21
2023-04-17T18:24:59.747Z,66.40
2023-04-17T18:29:07.940Z,66.59
2023-04-17T18:33:18.650Z,66.83
2023-04-17T18:37:27.296Z,66.71
2023-04-17T18:41:35.889Z,67.01
2023-04-17T18:45:44.026Z,67.35
2023-04-17T18:49:54.970Z,67.34
2023-04-17T18:54:03.797Z,67.55
2023-04-17T18:58:14.208Z,67.48
2023-04-17T19:02:23.002Z,67.57
2023-04-17T19:06:31.578Z,67.55
2023-04-17T19:10:40.242Z,68.04
2023-04-17T19:14:51.843Z,68.10
2023-04-17T19:18:59.429Z,68.27
2023-04-17T19:23:12.751Z,68.35
2023-04-17T19:27:21.251Z,68.63
2023-04-17T19:31:28.989Z,68.82
2023-04-17T19:35:37.000Z,69.10
2023-04-17T19:39:45.294Z,68.99
2023-04-17T19:43:54.406Z,69.27
2023-04-17T19:48:03.109Z,69.33
2023-04-17T19:52:15.038Z,69.69
2023-04-17T19:56:24.465Z,69.78
2023-04-17T20:00:32.384Z,70.16
2023-04-17T20:04:40.058Z,70.31
2023-04-17T20:08:47.701Z,70.88
2023-04-17T20:12:57.234Z,71.29
2023-04-17T20:17:05.228Z,71.51
2023-04-17T20:21:13.335Z,71.81
2023-04-17T20:25:20.940Z,71.94
2023-04-17T20:29:29.021Z,71.93
2023-04-17T20:33:36.615Z,72.19
2023-04-17T20:37:46.197Z,72.49
2023-04-17T20:41:54.108Z,72.76
2023-04-17T20:46:01.661Z,73.25
2023-04-17T20:50:11.825Z,74.12
2023-04-17T20:54:23.345Z,74.44
2023-04-17T20:58:32.398Z,75.62
2023-04-17T21:02:41.272Z,75.93
2023-04-17T21:06:50.585Z,76.41
2023-04-17T21:10:58.072Z,76.68
2023-04-17T21:15:05.920Z,77.13
2023-04-17T21:19:13.563Z,77.86
2023-04-17T21:23:21.290Z,78.17
2023-04-17T21:27:29.064Z,78.32
2023-04-17T21:31:37.351Z,78.50
2023-04-17T21:35:44.810Z,78.78
2023-04-17T21:39:53.025Z,78.92
2023-04-17T21:44:02.723Z,79.20
2023-04-17T21:48:10.465Z,78.96
2023-04-17T21:52:18.629Z,79.20
2023-04-17T21:56:26.857Z,79.46
2023-04-17T22:00:34.582Z,79.69
2023-04-17T22:04:43.071Z,79.66
2023-04-17T22:08:52.317Z,79.84
2023-04-17T22:12:59.835Z,80.20
2023-04-17T22:17:07.975Z,80.57
2023-04-17T22:21:15.746Z,80.89
2023-04-17T22:25:23.270Z,80.89
2023-04-17T22:29:31.118Z,81.20
2023-04-17T22:33:38.867Z,81.68
2023-04-17T22:37:46.785Z,81.39
2023-04-17T22:41:54.405Z,81.65
2023-04-17T22:46:02.432Z,81.89
2023-04-17T22:50:11.815Z,81.89
2023-04-17T22:54:23.093Z,82.00
2023-04-17T22:58:34.052Z,82.42
2023-04-17T23:02:42.146Z,82.33
2023-04-17T23:06:49.820Z,82.69
2023-04-17T23:11:05.311Z,83.10
2023-04-17T23:15:14.134Z,83.05
2023-04-17T23:19:22.566Z,83.12
2023-04-17T23:23:30.861Z,83.33
2023-04-17T23:27:38.160Z,83.72
2023-04-17T23:31:46.746Z,83.59
2023-04-17T23:35:54.533Z,83.75
2023-04-17T23:40:02.327Z,83.64
2023-04-17T23:44:10.495Z,84.11
2023-04-17T23:48:17.893Z,84.12
2023-04-17T23:52:26.269Z,84.20
2023-04-17T23:56:34.188Z,83.96
